Terminal Aerodrome Forecast
Issued by NWS Sterling, VA

Home | Current Version | Previous Version | Text Only | Print | Product List | Glossary On
Versions: 1 2 3 4 5 6 7 8 9 10 11 12
000
FTUS41 KLWX 271100
TAFMRB
TAF
KMRB 271139Z 2712/2812 00000KT 3SM BR SCT025 OVC050
     FM271400 00000KT P6SM SCT025 OVC050
     FM272000 30007KT P6SM BKN050
     FM280400 30009KT P6SM SCT050=

USA.gov is the U.S. government's official web portal to all federal, state and local government web resources and services.